Aérodrome :
LOGIN :

S'inscrire | Disclaimer

   EN    FR    IT 

 










Légende :    VFR   VFR Marginal   IFR   IFR Intensif   IFR Très Intensif
Visi : 
Plafond : 
>= 8 km
>= 3000ft
5 à 8 km
1000 à 3000 ft
1500m à 5 km
500 à 1000 ft
800 à 1500m
200 à 500 ft
< 800m
< 200 ft
Symboles :   Orages  Brouillard  Fortes neiges  Fortes précipitations  Vent > 20 kt
SIGMETs :   Divers  Orages  Givrage  Turbulence  Onde Orograph.  Cendres Volcan.






- Altitude de l'aérodrome : 141 ft
- Code IATA : SKS


EKSP - Srydstrup Vojens

DERNIER METAR :
  • 122120Z 29009KT 9999 FEW026 BKN045 11/07 Q1020

METARs EXPIRÉS :
  • 122050Z 29009KT 9999 FEW035 11/07 Q1019
  • 122020Z 29009KT 9999 FEW035 12/07 Q1019
  • 121950Z 30014KT 9999 FEW035 12/06 Q1019
  • 121920Z 31012KT 9999 FEW035 SCT050 13/07 Q1018
  • 121850Z 30014KT 9999 FEW035 SCT050 13/07 Q1018

TAF TAF EKSP
Valide du 12 à 21h jusqu'au 13 à 21h UTC


122008Z 1221/1321 30012KT 9999 SCT025
TEMPO 1221/1301 31015G25KT
TEMPO 1306/1316 31012G22KT
BECMG 1317/1320 25008KT



MET'MAP, la Météo Aéronautique d'un coup d'oeil ! - Copyright ORBIFLY Décembre 2007 - Disclaimer

ORBIFLY MET'MAP TEAM :

Programmation & Développement : Alexandra Zaïnal
Sur une idée originale de : Baudouin d'Aumeries
Assistance à la programmation : Marc-Olivier Méhu
Soutien technique & logistique : Manuel Goepfert

Contact : metmap@orbifly.com




SOURCES & CREDITS :

   NOAA